x

Sentry Shoal (46131) Wave Buoy

10:00 - Fri 3rd Jul 2015 All times are PDT. -7 hours from GMT.

  • Sig Wave height 1.6ft
  • Peak Period 2s
  • Wind
    25mph, 29mph gusts
  • Sea Temp 56°f
  • Ar Temp 64°f
  • Sea Pressure 1011.3mb
  • Sentry Shoal
  • Sentry Shoal

More Historic Weather Station data

Upgrade to MSW Pro to gain access to the past 30 days of data for over 8000 Wavebouys and Weather Stations around the globe.

Join Pro

Comparision Forecast

View Surf forecast
   
Sex 07/03 10:00 1.6ft 2s 25 29 mph 1011.3mb 56f 64f
9:00 1.6ft 3s 20 22 mph 1011.1mb 57f 65f
8:00 2ft 3s 20 22 mph 1011mb 57f 68f
7:00 2ft 3s 20 22 mph 1011mb 57f 71f
6:00 1.6ft 3s 22 25 mph 1011.2mb 57f 71f
5:00  -   -  22
mph
- - -
4:00 1.3ft 3s 13 16 mph 1012.7mb 57f 70f
3:00 1.3ft 3s 18 22 mph 1013.1mb 56f 70f
2:00 1.3ft 3s 20 25 mph 1013.7mb 56f 69f
1:00 1ft 4s 18 22 mph 1014.1mb 57f 66f
12:00 1ft 3s 16 18 mph 1014.9mb 57f 65f
11:00 1.6ft 3s 20 22 mph 1014.9mb 56f 65f
9:00 1.6ft 3s 20 22 mph 1015mb 56f 62f
8:00 1.6ft 2s 22 27 mph 1015.1mb 55f 61f
7:00 2ft 3s 20 25 mph 1014.9mb 55f 60f
6:00 2ft 3s 20 25 mph 1014.8mb 55f 60f
5:00 2ft 3s 20 25 mph 1014.5mb 55f 60f
4:00 2ft 3s 20 25 mph 1014.5mb 55f 60f
3:00 2ft 4s 22 27 mph 1014.4mb 56f 60f
2:00 2ft 3s 20 22 mph 1014.8mb 56f 61f
1:00 2ft 3s 18 20 mph 1015.2mb 55f 62f
12:00 1.6ft 3s 20 25 mph 1014.9mb 55f 62f
Qui 07/02 11:00 1.6ft 3s 22 25 mph 1014.7mb 56f 64f
10:00 2ft 3s 20 25 mph 1014.8mb 57f 65f
9:00  -   -  22
mph
1014.4mb - 67f
8:00 2ft 3s 22 27 mph 1014.2mb 58f 69f
7:00 2ft 3s 20 25 mph 1014.4mb 59f 70f
6:00 1.6ft 3s 18 22 mph 1014.8mb 59f 70f
5:00 1.3ft 3s 16 20 mph 1015.1mb 59f 71f
4:00 1ft 3s 16 18 mph 1015.9mb 59f 69f
3:00 0.7ft 2s 11 13 mph 1016.2mb 59f 67f
2:00 0.7ft 3s 9 11 mph 1017.1mb 60f 67f
1:00 0.7ft 3s 11 13 mph 1017.4mb 58f 66f
12:00 1ft 3s 11 13 mph 1017.7mb 58f 65f
11:00 1.3ft 3s 13
mph
1018.1mb 57f 63f
10:00 1.3ft 3s 13
mph
1018.1mb 56f 60f
9:00 1.6ft 3s 13 16 mph 1018.2mb 56f 59f
8:00 2ft 3s 20 22 mph 1017.8mb 56f 59f
7:00 2ft 3s 18 20 mph 1017.6mb 56f 58f
6:00 2ft 2s 18 20 mph 1017mb 56f 58f
5:00 2ft 3s 18 20 mph 1016.7mb 56f 58f
4:00 1.6ft 3s 18 22 mph 1016.6mb 56f 59f
3:00 1.6ft 3s 20 22 mph 1016.4mb 56f 60f
2:00 2ft 3s 18 22 mph 1016.5mb 57f 60f
1:00  -   -  18
mph
1016.3mb - 61f
12:00 1.6ft 3s 18 20 mph 1016.3mb 60f 63f
Qua 07/01 10:00  -   -  18
mph
1015.9mb - 66f
9:00 1ft 2s 20 22 mph 1015.2mb 62f 68f
8:00 0.3ft 4s 18 22 mph 1015mb 65f 72f
7:00 0.3ft 3s 9
mph
1015.1mb 67f 74f
6:00 0.3ft 2s 4 7 mph 1015.5mb 66f 76f
5:00 0.3ft 2s 2
mph
1016mb 68f 75f
4:00 0.3ft 2s 4
mph
1016.8mb 67f 72f
3:00 0.3ft 2s 4 7 mph 1017.4mb 65f 70f
2:00 0.3ft 2s 7
mph
1018mb 63f 67f
1:00 0.3ft 2s 2 4 mph 1018.7mb 62f 67f
12:00 0.3ft 2s 7
mph
1019.1mb 60f 65f
11:00 0.7ft 2s 9
mph
1019.5mb 58f 62f
10:00 0.7ft 2s 11 13 mph 1019.5mb 58f 60f
9:00 1ft 3s 13
mph
1019.7mb 58f 59f
8:00 1ft 2s 13 16 mph 1019.7mb 58f 58f
7:00 1.3ft 3s 13 16 mph 1019.5mb 58f 59f
6:00 1.3ft 3s 13 16 mph 1019.2mb 58f 59f
5:00 1.6ft 3s 18 22 mph 1018.8mb 58f 58f
4:00 2ft 3s 20 22 mph 1018.8mb 58f 59f
3:00 1.6ft 4s 20 25 mph 1018.9mb 58f 59f
2:00 2ft 3s 20
mph
1018.9mb 59f 60f
1:00 1.6ft 3s 18 22 mph 1019.1mb 60f 60f
12:00 2ft 3s 18 22 mph 1019.2mb 59f 61f
Ter 06/30 10:00 2ft 3s 18 22 mph 1018.7mb 60f 62f
9:00 2ft 3s 18 22 mph 1018mb 61f 64f
8:00 2.5ft 4s 20 25 mph 1017.6mb 63f 66f
7:00 2ft 3s 22 27 mph 1017.5mb 63f 68f
6:00 1.6ft 3s 18 22 mph 1017.3mb 64f 69f
5:00 2ft 3s 20 22 mph 1017.2mb 64f 70f
3:00 1ft 2s 16 18 mph 1018.2mb 63f 71f
2:00 0.7ft 2s 13 16 mph 1018.8mb 64f 69f
1:00 0.7ft 3s 9 11 mph 1019.2mb 64f 67f
12:00 0.7ft 2s 11
mph
1019.7mb 63f 66f
11:00 1.3ft 3s 9 11 mph 1019.8mb 62f 65f
10:00 1.3ft 3s 13 16 mph 1019.5mb 63f 64f
9:00 1ft 3s 13 16 mph 1019.4mb 63f 64f
8:00 0.7ft 3s 11 13 mph 1019mb 64f 64f
7:00 0.7ft 2s 13 16 mph 1018.7mb 63f 64f